createdAt,value
2022-11-24T00:00:19.203Z,42.93
2022-11-24T00:01:19.201Z,43.29
2022-11-24T00:02:19.334Z,42.61
2022-11-24T00:03:19.399Z,42.24
2022-11-24T00:04:19.219Z,42.38
2022-11-24T00:05:19.222Z,41.86
2022-11-24T00:06:19.208Z,41.54
2022-11-24T00:07:19.225Z,41.35
2022-11-24T00:08:19.208Z,41.58
2022-11-24T00:09:19.219Z,41.73
2022-11-24T00:10:19.213Z,41.2
2022-11-24T00:11:19.211Z,43.31
2022-11-24T00:12:19.201Z,42.22
2022-11-24T00:13:19.216Z,41.44
2022-11-24T00:14:19.211Z,40.91
2022-11-24T00:15:19.204Z,41.04
2022-11-24T00:16:19.331Z,42.31
2022-11-24T00:17:19.210Z,41.83
2022-11-24T00:18:19.214Z,40.59
2022-11-24T00:19:19.884Z,40.84
2022-11-24T00:20:19.211Z,42.8
2022-11-24T00:21:19.217Z,41.57
2022-11-24T00:22:19.212Z,41.73
2022-11-24T00:23:19.209Z,40.9
2022-11-24T00:24:19.223Z,40.46
2022-11-24T00:25:19.203Z,42.31
2022-11-24T00:26:19.207Z,41.47
2022-11-24T00:27:19.201Z,40.64
2022-11-24T00:28:19.201Z,40.32
2022-11-24T00:29:19.210Z,40.65
2022-11-24T00:30:19.201Z,40.65
2022-11-24T00:31:19.282Z,40.42
2022-11-24T00:32:19.193Z,40.41
2022-11-24T00:33:19.191Z,40.33
2022-11-24T00:34:19.205Z,40.13
2022-11-24T00:35:19.188Z,40.01
2022-11-24T00:36:19.208Z,40.62
2022-11-24T00:37:19.210Z,40.32
2022-11-24T00:38:19.192Z,41.44
2022-11-24T00:39:19.210Z,41.46
2022-11-24T00:40:19.194Z,41.13
2022-11-24T00:41:19.192Z,40.88
2022-11-24T00:42:19.196Z,42.05
2022-11-24T00:43:19.192Z,42.84
2022-11-24T00:44:19.203Z,42.84
2022-11-24T00:45:19.192Z,42.24
2022-11-24T00:46:19.314Z,40.32
2022-11-24T00:47:19.292Z,40.62
2022-11-24T00:48:19.200Z,41.3
2022-11-24T00:49:19.214Z,42.02
2022-11-24T00:50:19.203Z,41.28
2022-11-24T00:51:19.192Z,40.19
2022-11-24T00:52:19.205Z,41.42
2022-11-24T00:53:19.197Z,40.96
2022-11-24T00:54:19.380Z,41.64
2022-11-24T00:55:19.210Z,41.15
2022-11-24T00:56:19.202Z,41.24
2022-11-24T00:57:19.203Z,40.93
2022-11-24T00:58:19.210Z,39.91
2022-11-24T00:59:19.226Z,40.66
2022-11-24T01:00:19.214Z,40.32
2022-11-24T01:01:19.247Z,40.12
2022-11-24T01:02:19.285Z,41.55
2022-11-24T01:03:19.207Z,41.84
2022-11-24T01:04:19.225Z,40.39
2022-11-24T01:05:19.208Z,40.37
2022-11-24T01:06:19.204Z,40.13
2022-11-24T01:07:19.265Z,40.21
2022-11-24T01:08:19.211Z,40.69
2022-11-24T01:09:19.221Z,40.04
2022-11-24T01:10:19.201Z,40.43
2022-11-24T01:11:19.203Z,40.58
2022-11-24T01:12:19.206Z,41.37
2022-11-24T01:13:19.207Z,40.89
2022-11-24T01:14:19.218Z,40.91
2022-11-24T01:15:19.206Z,40.71
2022-11-24T01:16:19.275Z,40.71
2022-11-24T01:17:19.207Z,40.18
2022-11-24T01:18:19.203Z,40.54
2022-11-24T01:19:19.213Z,39.57
2022-11-24T01:20:19.204Z,38.86
2022-11-24T01:21:19.201Z,38.66
2022-11-24T01:22:19.210Z,38.91
2022-11-24T01:23:19.207Z,37.7
2022-11-24T01:24:19.218Z,37.14
2022-11-24T01:25:19.227Z,37.45
2022-11-24T01:26:19.216Z,37.63
2022-11-24T01:27:19.244Z,37.21
2022-11-24T01:28:19.203Z,37.88
2022-11-24T01:29:19.209Z,38.25
2022-11-24T01:30:19.206Z,37.42
2022-11-24T01:31:19.279Z,38.77
2022-11-24T01:32:19.209Z,38.03
2022-11-24T01:33:19.210Z,37.39
2022-11-24T01:34:19.228Z,37.99
2022-11-24T01:35:19.208Z,37.95
2022-11-24T01:36:19.204Z,38.09
2022-11-24T01:37:19.207Z,38.12
2022-11-24T01:38:19.205Z,37.99
2022-11-24T01:39:19.219Z,38.85
2022-11-24T01:40:19.212Z,39.27
2022-11-24T01:41:19.208Z,38.97
2022-11-24T01:42:19.190Z,38.31
2022-11-24T01:43:19.192Z,38.85
2022-11-24T01:44:19.209Z,39.43
2022-11-24T01:45:19.202Z,39.72
2022-11-24T01:46:19.290Z,37.97
2022-11-24T01:47:19.193Z,38.41
2022-11-24T01:48:21.120Z,38.4
2022-11-24T01:49:19.247Z,37.65
2022-11-24T01:50:19.197Z,37.26
2022-11-24T01:51:19.193Z,37.75
2022-11-24T01:52:19.204Z,38
2022-11-24T01:53:19.190Z,36.13
2022-11-24T01:54:19.230Z,36.84
2022-11-24T01:55:19.193Z,36.97
2022-11-24T01:56:19.194Z,35.79
2022-11-24T01:57:19.192Z,37.14
2022-11-24T01:58:19.199Z,36.85
2022-11-24T01:59:19.210Z,35.94
2022-11-24T02:00:19.196Z,37.26
2022-11-24T02:01:19.309Z,37.94
2022-11-24T02:02:19.242Z,38.04
2022-11-24T02:03:19.199Z,38.57
2022-11-24T02:04:19.207Z,39.11
2022-11-24T02:05:19.223Z,38.67
2022-11-24T02:06:19.208Z,38.78
2022-11-24T02:07:19.305Z,38.49
2022-11-24T02:08:19.209Z,38.92
2022-11-24T02:09:19.209Z,38.92
2022-11-24T02:10:19.206Z,39.68
2022-11-24T02:11:19.205Z,39.55
2022-11-24T02:12:19.206Z,39.54
2022-11-24T02:13:19.196Z,40.26
2022-11-24T02:14:19.220Z,40.22
2022-11-24T02:15:19.210Z,40.12
2022-11-24T02:16:19.261Z,40.64
2022-11-24T02:17:19.239Z,39.55
2022-11-24T02:18:19.212Z,39.38
2022-11-24T02:19:19.213Z,39.79
2022-11-24T02:20:19.205Z,39.96
2022-11-24T02:21:19.206Z,39.93
2022-11-24T02:22:19.204Z,39.89
2022-11-24T02:23:19.206Z,41.08
2022-11-24T02:24:19.218Z,40.21
2022-11-24T02:25:19.201Z,40.01
2022-11-24T02:26:19.197Z,39.73
2022-11-24T02:27:19.208Z,40.36
2022-11-24T02:28:19.205Z,40.82
2022-11-24T02:29:19.225Z,40.62
2022-11-24T02:30:19.220Z,40.66
2022-11-24T02:31:19.258Z,40.39
2022-11-24T02:32:19.211Z,40.26
2022-11-24T02:33:19.209Z,40.02
2022-11-24T02:34:19.217Z,40.02
2022-11-24T02:35:19.236Z,39.92
2022-11-24T02:36:19.213Z,39.56
2022-11-24T02:37:19.200Z,40.16
2022-11-24T02:38:19.207Z,40.42
2022-11-24T02:39:19.215Z,40.13
2022-11-24T02:40:19.226Z,40.17
2022-11-24T02:41:19.203Z,40.24
2022-11-24T02:42:19.206Z,40.5
2022-11-24T02:43:19.204Z,40.37
2022-11-24T02:44:19.216Z,40.65
2022-11-24T02:45:19.210Z,40.45
2022-11-24T02:46:19.252Z,40.08
2022-11-24T02:47:19.207Z,39.76
2022-11-24T02:48:19.209Z,40.04
2022-11-24T02:49:19.222Z,40.28
2022-11-24T02:50:19.214Z,39.97
2022-11-24T02:51:19.214Z,40.27
2022-11-24T02:52:19.213Z,39.81
2022-11-24T02:53:22.270Z,39.81
2022-11-24T02:54:19.373Z,40.45
2022-11-24T02:55:19.191Z,40.55
2022-11-24T02:56:19.195Z,40.51
2022-11-24T02:57:19.195Z,40.44
2022-11-24T02:58:19.198Z,40.7
2022-11-24T02:59:19.198Z,40.81
2022-11-24T03:00:19.190Z,41.27
2022-11-24T03:01:19.339Z,41.3
2022-11-24T03:02:19.254Z,41.72
2022-11-24T03:03:19.195Z,41.01
2022-11-24T03:04:19.210Z,41.07
2022-11-24T03:05:19.189Z,41.03
2022-11-24T03:06:19.190Z,40.85
2022-11-24T03:07:19.282Z,40.91
2022-11-24T03:08:19.186Z,41.16
2022-11-24T03:09:19.205Z,40.86
2022-11-24T03:10:19.191Z,40.4
2022-11-24T03:11:19.186Z,40.28
2022-11-24T03:12:19.193Z,41.07
2022-11-24T03:13:19.199Z,41.32
2022-11-24T03:14:19.213Z,41.2
2022-11-24T03:15:19.190Z,41.09
2022-11-24T03:16:19.284Z,41.1
2022-11-24T03:17:19.198Z,40.96
2022-11-24T03:18:19.216Z,41.68
2022-11-24T03:19:19.226Z,42.45
2022-11-24T03:20:19.208Z,42.5
2022-11-24T03:21:19.206Z,41.66
2022-11-24T03:22:19.209Z,41.97
2022-11-24T03:23:19.202Z,42.62
2022-11-24T03:24:19.232Z,42.62
2022-11-24T03:25:19.214Z,42.35
2022-11-24T03:26:19.207Z,42.44
2022-11-24T03:27:19.210Z,42.2
2022-11-24T03:28:19.209Z,41.73
2022-11-24T03:29:19.257Z,41.77
2022-11-24T03:30:19.203Z,42.11
2022-11-24T03:31:19.281Z,42.28
2022-11-24T03:32:19.262Z,42.5
2022-11-24T03:33:19.211Z,41.9
2022-11-24T03:34:19.218Z,41.72
2022-11-24T03:35:19.208Z,41.46
2022-11-24T03:36:19.213Z,41.81
2022-11-24T03:37:19.212Z,41.65
2022-11-24T03:38:19.219Z,41.57
2022-11-24T03:39:19.217Z,41.83
2022-11-24T03:40:19.206Z,42.41
2022-11-24T03:41:19.208Z,42.61
2022-11-24T03:42:19.208Z,42.37
2022-11-24T03:43:19.206Z,42.91
2022-11-24T03:44:19.218Z,42.43
2022-11-24T03:45:44.871Z,43.16
2022-11-24T03:46:19.245Z,43.52
2022-11-24T03:47:19.209Z,43.54
2022-11-24T03:48:19.210Z,43.28
2022-11-24T03:49:19.228Z,43.14
2022-11-24T03:50:19.214Z,43.62
2022-11-24T03:51:19.212Z,43.95
2022-11-24T03:52:19.205Z,44.19
2022-11-24T03:53:19.206Z,43.72
2022-11-24T03:54:19.226Z,43.61
2022-11-24T03:55:19.209Z,43.44
2022-11-24T03:56:19.204Z,43.55
2022-11-24T03:57:19.290Z,43.46
2022-11-24T03:58:19.216Z,44.11
2022-11-24T03:59:19.230Z,43.48
2022-11-24T04:00:19.200Z,43.9
2022-11-24T04:01:19.245Z,44.42
2022-11-24T04:02:19.232Z,44.35
2022-11-24T04:03:19.213Z,43.71
2022-11-24T04:04:19.211Z,44.26
2022-11-24T04:05:19.204Z,44.49
2022-11-24T04:06:19.197Z,43.71
2022-11-24T04:07:19.326Z,43.54
2022-11-24T04:08:19.194Z,44.13
2022-11-24T04:09:19.215Z,43.1
2022-11-24T04:10:19.191Z,43.41
2022-11-24T04:11:19.188Z,43.63
2022-11-24T04:12:19.207Z,43.41
2022-11-24T04:13:19.201Z,43.37
2022-11-24T04:14:19.210Z,43.08
2022-11-24T04:15:19.188Z,43.22
2022-11-24T04:16:19.232Z,43.27
2022-11-24T04:17:19.193Z,43.99
2022-11-24T04:18:19.203Z,43.61
2022-11-24T04:19:19.206Z,44.19
2022-11-24T04:20:19.188Z,43.82
2022-11-24T04:21:19.189Z,44.23
2022-11-24T04:22:19.188Z,43.74
2022-11-24T04:23:19.187Z,43.98
2022-11-24T04:24:19.217Z,43.87
2022-11-24T04:25:19.201Z,43.78
2022-11-24T04:26:19.208Z,43.65
2022-11-24T04:27:19.207Z,44.59
2022-11-24T04:28:19.219Z,44.05
2022-11-24T04:29:19.216Z,44.2
2022-11-24T04:30:19.205Z,44.2
2022-11-24T04:31:19.289Z,44.39
2022-11-24T04:32:19.203Z,45.63
2022-11-24T04:33:19.215Z,45.25
2022-11-24T04:34:19.229Z,44.75
2022-11-24T04:35:19.205Z,44.52
2022-11-24T04:36:19.211Z,44.36
2022-11-24T04:37:19.206Z,44.9
2022-11-24T04:39:19.510Z,44.55
2022-11-24T04:39:25.136Z,44.17
2022-11-24T04:40:19.219Z,44.17
2022-11-24T04:41:19.208Z,44.21
2022-11-24T04:42:19.203Z,44.61
2022-11-24T04:43:19.212Z,44.92
2022-11-24T04:44:19.218Z,44.63
2022-11-24T04:45:19.208Z,44.77
2022-11-24T04:46:19.290Z,44.85
2022-11-24T04:47:19.203Z,44.59
2022-11-24T04:48:19.202Z,45.16
2022-11-24T04:49:19.213Z,45.77
2022-11-24T04:50:19.205Z,45.32
2022-11-24T04:51:19.213Z,45.44
2022-11-24T04:52:19.214Z,45.09
2022-11-24T04:53:19.213Z,44.41
2022-11-24T04:54:19.228Z,44.7
2022-11-24T04:55:19.210Z,45.06
2022-11-24T04:56:19.203Z,44.66
2022-11-24T04:57:19.204Z,45.12
2022-11-24T04:58:19.210Z,45.12
2022-11-24T04:59:19.215Z,45.09
2022-11-24T05:00:19.205Z,45.18
2022-11-24T05:01:19.235Z,45.27
2022-11-24T05:02:19.216Z,45.27
2022-11-24T05:03:19.205Z,46.3
2022-11-24T05:04:19.294Z,46.28
2022-11-24T05:05:19.209Z,46.61
2022-11-24T05:06:19.209Z,45.96
2022-11-24T05:07:19.525Z,45.62
2022-11-24T05:08:19.208Z,46.33
2022-11-24T05:09:19.225Z,45.57
2022-11-24T05:10:19.199Z,45.45
2022-11-24T05:11:19.205Z,45.63
2022-11-24T05:12:19.269Z,45.76
2022-11-24T05:13:19.212Z,46.17
2022-11-24T05:14:19.221Z,45.31
2022-11-24T05:15:19.210Z,45.76
2022-11-24T05:16:19.235Z,45.82
2022-11-24T05:17:19.191Z,45.82
2022-11-24T05:18:19.197Z,45.44
2022-11-24T05:19:19.220Z,46.16
2022-11-24T05:20:19.203Z,45.68
2022-11-24T05:21:19.197Z,45.87
2022-11-24T05:22:19.189Z,46.27
2022-11-24T05:23:19.191Z,46
2022-11-24T05:24:19.218Z,45.96
2022-11-24T05:25:19.189Z,46.14
2022-11-24T05:26:19.200Z,46.21
2022-11-24T05:27:19.191Z,46.09
2022-11-24T05:28:19.199Z,46.27
2022-11-24T05:29:19.211Z,46.8
2022-11-24T05:30:19.205Z,46.26
2022-11-24T05:31:19.283Z,47
2022-11-24T05:32:19.193Z,46.67
2022-11-24T05:33:19.371Z,46.69
2022-11-24T05:34:19.215Z,47.25
2022-11-24T05:35:19.192Z,47.63
2022-11-24T05:36:19.193Z,47.55
2022-11-24T05:37:19.189Z,47.25
2022-11-24T05:38:19.190Z,47.59
2022-11-24T05:39:19.203Z,47.47
2022-11-24T05:40:19.204Z,48.46
2022-11-24T05:41:19.206Z,48.58
2022-11-24T05:42:19.205Z,47.67
2022-11-24T05:43:19.211Z,47.87
2022-11-24T05:44:19.216Z,48.53
2022-11-24T05:45:19.203Z,47.8
2022-11-24T05:46:19.224Z,47.62
2022-11-24T05:47:19.209Z,47.75
2022-11-24T05:48:19.214Z,47.75
2022-11-24T05:49:19.230Z,47.79
2022-11-24T05:50:19.191Z,47.79
2022-11-24T05:51:19.231Z,48.13
2022-11-24T05:52:19.198Z,47.97
2022-11-24T05:53:19.200Z,47.98
2022-11-24T05:54:19.231Z,47.42
2022-11-24T05:55:19.210Z,47.78
2022-11-24T05:56:19.214Z,48.08
2022-11-24T05:57:19.208Z,48.46
2022-11-24T05:58:19.207Z,48.86
2022-11-24T05:59:19.213Z,48.86
2022-11-24T06:00:19.194Z,48.72
2022-11-24T06:01:19.201Z,49.55
2022-11-24T06:02:19.439Z,49.04
2022-11-24T06:03:19.272Z,49.83
2022-11-24T06:04:19.280Z,49.77
2022-11-24T06:05:19.212Z,49.35
2022-11-24T06:06:19.236Z,48.38
2022-11-24T06:07:19.242Z,48.19
2022-11-24T06:08:19.205Z,48.27
2022-11-24T06:09:19.329Z,48.27
2022-11-24T06:10:19.198Z,47.07
2022-11-24T06:11:19.212Z,47.77
2022-11-24T06:12:19.210Z,48.1
2022-11-24T06:13:19.248Z,48.11
2022-11-24T06:14:19.225Z,48.55
2022-11-24T06:15:19.205Z,48.18
2022-11-24T06:16:19.221Z,48.7
2022-11-24T06:17:19.204Z,49.67
2022-11-24T06:18:19.213Z,49.05
2022-11-24T06:19:19.260Z,48.8
2022-11-24T06:20:19.200Z,48.47
2022-11-24T06:21:19.204Z,49.39
2022-11-24T06:22:19.208Z,49.04
2022-11-24T06:23:19.208Z,49.17
2022-11-24T06:24:19.214Z,48.78
2022-11-24T06:25:19.208Z,49.24
2022-11-24T06:26:19.208Z,48.54
2022-11-24T06:27:19.207Z,48.62
2022-11-24T06:28:19.207Z,48.75
2022-11-24T06:29:19.233Z,49.19
2022-11-24T06:30:19.199Z,49.1
2022-11-24T06:31:19.277Z,49.02
2022-11-24T06:32:19.192Z,49.05
2022-11-24T06:33:19.191Z,49.37
2022-11-24T06:34:19.209Z,49.29
2022-11-24T06:35:19.185Z,48.9
2022-11-24T06:36:19.196Z,48.72
2022-11-24T06:37:19.192Z,48.83
2022-11-24T06:38:22.996Z,48.83
2022-11-24T06:39:19.211Z,48.18
2022-11-24T06:40:19.209Z,48.78
2022-11-24T06:41:19.193Z,48.34
2022-11-24T06:42:19.188Z,48.34
2022-11-24T06:43:19.185Z,48.47
2022-11-24T06:44:19.209Z,48.5
2022-11-24T06:45:19.207Z,48.47
2022-11-24T06:46:19.251Z,48.39
2022-11-24T06:47:19.190Z,48.3
2022-11-24T06:48:19.194Z,49.51
2022-11-24T06:49:19.209Z,48.01
2022-11-24T06:50:19.200Z,47.81
2022-11-24T06:51:19.194Z,48.28
2022-11-24T06:52:19.197Z,48.47
2022-11-24T06:53:19.194Z,48.83
2022-11-24T06:54:19.212Z,48.18
2022-11-24T06:55:19.192Z,47.82
2022-11-24T06:56:19.207Z,46.3
2022-11-24T06:57:19.201Z,48.23
2022-11-24T06:58:19.205Z,48.23
2022-11-24T06:59:19.212Z,48.17
2022-11-24T07:00:19.199Z,48.17
2022-11-24T07:01:19.271Z,47.65
2022-11-24T07:02:19.202Z,47.87
2022-11-24T07:03:19.248Z,47.99
2022-11-24T07:04:19.227Z,43.46
2022-11-24T07:05:19.216Z,47.43
2022-11-24T07:06:19.208Z,48.45
2022-11-24T07:07:19.227Z,49.2
2022-11-24T07:08:19.201Z,48.81
2022-11-24T07:09:19.217Z,48.98
2022-11-24T07:10:19.200Z,49.06
2022-11-24T07:11:19.254Z,48.67
2022-11-24T07:12:19.204Z,48.84
2022-11-24T07:13:19.194Z,48.38
2022-11-24T07:14:19.263Z,49.13
2022-11-24T07:15:19.225Z,48.74
2022-11-24T07:16:19.263Z,47.9
2022-11-24T07:17:19.210Z,47.81
2022-11-24T07:18:19.201Z,47.89
2022-11-24T07:19:24.492Z,48.59
2022-11-24T07:20:19.198Z,48.41
2022-11-24T07:21:19.210Z,49.46
2022-11-24T07:22:19.202Z,49.06
2022-11-24T07:23:19.201Z,48.33
2022-11-24T07:24:19.216Z,47.97
2022-11-24T07:25:19.212Z,48.04
2022-11-24T07:26:19.210Z,49.28
2022-11-24T07:27:19.210Z,45.04
2022-11-24T07:28:19.195Z,48.2
2022-11-24T07:29:19.222Z,48.29
2022-11-24T07:30:19.228Z,48.87
2022-11-24T07:31:19.365Z,47.99
2022-11-24T07:32:19.298Z,47.89
2022-11-24T07:33:19.205Z,47.89
2022-11-24T07:34:19.223Z,47.91
2022-11-24T07:35:19.228Z,48.04
2022-11-24T07:36:19.282Z,46.98
2022-11-24T07:37:19.211Z,46.72
2022-11-24T07:38:19.210Z,46.76
2022-11-24T07:39:19.218Z,46.22
2022-11-24T07:40:19.212Z,46.86
2022-11-24T07:41:19.209Z,47.35
2022-11-24T07:42:19.203Z,47.55
2022-11-24T07:43:20.362Z,48.48
2022-11-24T07:44:19.201Z,48.81
2022-11-24T07:45:19.200Z,48.13
2022-11-24T07:46:19.305Z,47.76
2022-11-24T07:47:19.187Z,47.76
2022-11-24T07:48:19.186Z,48.65
2022-11-24T07:49:19.205Z,48.65
2022-11-24T07:50:19.213Z,48.64
2022-11-24T07:51:19.194Z,48.29
2022-11-24T07:52:19.192Z,47.9
2022-11-24T07:53:19.190Z,47.1
2022-11-24T07:54:19.228Z,46.6
2022-11-24T07:55:19.196Z,46.92
2022-11-24T07:56:19.191Z,46.78
2022-11-24T07:57:19.201Z,46.44
2022-11-24T07:58:19.196Z,46.8
2022-11-24T07:59:19.212Z,46.4
2022-11-24T08:00:19.219Z,45.84
2022-11-24T08:01:19.248Z,46.27
2022-11-24T08:02:19.193Z,46.66
2022-11-24T08:03:19.219Z,46.66
2022-11-24T08:04:19.206Z,45.68
2022-11-24T08:05:19.192Z,45.88
2022-11-24T08:06:29.003Z,45.46
2022-11-24T08:07:19.270Z,45.25
2022-11-24T08:08:19.188Z,44.93
2022-11-24T08:09:19.217Z,44.47
2022-11-24T08:10:19.200Z,44.77
2022-11-24T08:11:19.208Z,45.14
2022-11-24T08:12:19.208Z,44.72
2022-11-24T08:13:19.213Z,44.95
2022-11-24T08:14:19.215Z,44.52
2022-11-24T08:15:19.207Z,44.36
2022-11-24T08:16:19.345Z,43.8
2022-11-24T08:17:19.208Z,44.15
2022-11-24T08:18:19.206Z,44.41
2022-11-24T08:19:19.249Z,43.93
2022-11-24T08:20:19.198Z,44.17
2022-11-24T08:21:19.203Z,44.29
2022-11-24T08:22:19.245Z,43.33
2022-11-24T08:23:19.206Z,43.5
2022-11-24T08:24:19.240Z,43.46
2022-11-24T08:25:19.211Z,43.46
2022-11-24T08:26:19.253Z,43.66
2022-11-24T08:27:19.200Z,43.04
2022-11-24T08:28:19.218Z,43.26
2022-11-24T08:29:19.219Z,43.51
2022-11-24T08:30:19.208Z,43.17
2022-11-24T08:31:19.326Z,43.49
2022-11-24T08:32:22.473Z,44.06
2022-11-24T08:33:19.211Z,43.9
2022-11-24T08:34:19.230Z,43.57
2022-11-24T08:35:19.207Z,43.67
2022-11-24T08:36:19.221Z,43.35
2022-11-24T08:37:19.203Z,43.24
2022-11-24T08:38:19.201Z,43.14
2022-11-24T08:39:19.237Z,42.7
2022-11-24T08:40:19.201Z,42.51
2022-11-24T08:41:19.209Z,42.37
2022-11-24T08:42:19.205Z,41.71
2022-11-24T08:43:19.201Z,41.59
2022-11-24T08:44:19.224Z,41.94
2022-11-24T08:45:21.469Z,41.32
2022-11-24T08:46:19.455Z,41.27
2022-11-24T08:47:19.206Z,41.2
2022-11-24T08:48:19.210Z,41.38
2022-11-24T08:49:19.221Z,40.99
2022-11-24T08:50:19.221Z,41.33
2022-11-24T08:51:19.205Z,41.16
2022-11-24T08:52:19.197Z,40.99
2022-11-24T08:53:19.201Z,41.5
2022-11-24T08:54:19.231Z,40.82
2022-11-24T08:55:19.198Z,40.49
2022-11-24T08:56:19.250Z,36.54
2022-11-24T08:57:21.920Z,40.92
2022-11-24T08:58:19.194Z,40.38
2022-11-24T08:59:19.289Z,40.26
2022-11-24T09:00:19.231Z,39.47
2022-11-24T09:01:19.252Z,39.52
2022-11-24T09:02:19.206Z,38.98
2022-11-24T09:03:19.196Z,38.88
2022-11-24T09:04:19.269Z,38.97
2022-11-24T09:05:50.175Z,38.59
2022-11-24T09:06:19.210Z,38.93
2022-11-24T09:07:19.273Z,38.14
2022-11-24T09:08:19.188Z,38.67
2022-11-24T09:09:19.204Z,38.93
2022-11-24T09:10:19.219Z,38.19
2022-11-24T09:11:19.198Z,38.67
2022-11-24T09:12:19.189Z,37.87
2022-11-24T09:13:19.186Z,37.87
2022-11-24T09:14:19.214Z,37.63
2022-11-24T09:15:19.212Z,38.23
2022-11-24T09:16:19.332Z,32.02
2022-11-24T09:17:19.206Z,38.18
2022-11-24T09:18:19.210Z,38.51
2022-11-24T09:19:19.218Z,37.64
2022-11-24T09:20:19.205Z,37.65
2022-11-24T09:21:19.208Z,37.74
2022-11-24T09:22:19.202Z,37.12
2022-11-24T09:23:19.212Z,37.65
2022-11-24T09:24:19.226Z,37.73
2022-11-24T09:25:19.206Z,37.81
2022-11-24T09:26:19.210Z,38.09
2022-11-24T09:27:19.204Z,37.16
2022-11-24T09:28:19.203Z,36.7
2022-11-24T09:29:19.225Z,36.37
2022-11-24T09:30:19.212Z,36.48
2022-11-24T09:31:19.280Z,36.42
2022-11-24T09:32:19.207Z,36.58
2022-11-24T09:33:19.199Z,36.77
2022-11-24T09:34:19.224Z,36.08
2022-11-24T09:35:19.212Z,36.84
2022-11-24T09:36:19.213Z,36.87
2022-11-24T09:37:19.203Z,36.76
2022-11-24T09:38:19.203Z,37.01
2022-11-24T09:39:19.215Z,37.06
2022-11-24T09:40:19.220Z,36.74
2022-11-24T09:41:19.211Z,36.94
2022-11-24T09:42:19.209Z,36.37
2022-11-24T09:43:19.199Z,36.36
2022-11-24T09:44:19.348Z,36.19
2022-11-24T09:45:35.376Z,36.14
2022-11-24T09:46:19.288Z,35.64
2022-11-24T09:47:19.210Z,35.47
2022-11-24T09:48:19.211Z,35
2022-11-24T09:49:19.261Z,35.51
2022-11-24T09:50:19.228Z,35.49
2022-11-24T09:51:19.206Z,35.56
2022-11-24T09:52:24.937Z,35.56
2022-11-24T09:53:23.695Z,35
2022-11-24T09:54:23.695Z,35.19
2022-11-24T09:55:23.674Z,34.94
2022-11-24T09:56:23.687Z,35.5
2022-11-24T09:57:23.667Z,35.87
2022-11-24T09:58:23.668Z,35.39
2022-11-24T09:59:23.679Z,36
2022-11-24T10:00:23.698Z,36
2022-11-24T10:01:23.725Z,35.27
2022-11-24T10:02:23.660Z,35.91
2022-11-24T10:03:23.666Z,35.57
2022-11-24T10:04:23.743Z,35.1
2022-11-24T10:05:23.656Z,34.53
2022-11-24T10:06:23.663Z,34.02
2022-11-24T10:07:23.720Z,34.8
2022-11-24T10:08:23.664Z,34.29
2022-11-24T10:09:23.655Z,34.32
2022-11-24T10:10:25.196Z,34.32
2022-11-24T10:11:23.657Z,34.15
2022-11-24T10:12:23.656Z,35.2
2022-11-24T10:13:23.651Z,35.13
2022-11-24T10:14:23.674Z,34.71
2022-11-24T10:15:23.653Z,34.4
2022-11-24T10:16:23.727Z,34.34
2022-11-24T10:17:23.654Z,34.96
2022-11-24T10:18:23.653Z,33.91
2022-11-24T10:19:27.670Z,34.18
2022-11-24T10:20:23.673Z,34.18
2022-11-24T10:21:23.653Z,35.1
2022-11-24T10:22:23.658Z,34.77
2022-11-24T10:23:23.660Z,34.54
2022-11-24T10:24:23.664Z,34.92
2022-11-24T10:25:23.649Z,34.34
2022-11-24T10:26:23.659Z,34.5
2022-11-24T10:27:23.650Z,34.77
2022-11-24T10:28:23.660Z,34.79
2022-11-24T10:29:23.652Z,34.66
2022-11-24T10:30:23.665Z,34.66
2022-11-24T10:31:23.741Z,34.55
2022-11-24T10:32:23.651Z,33.82
2022-11-24T10:33:30.087Z,34.07
2022-11-24T10:34:23.665Z,34.07
2022-11-24T10:35:23.641Z,34.23
2022-11-24T10:36:23.652Z,34.23
2022-11-24T10:37:23.630Z,34.15
2022-11-24T10:38:23.649Z,33.64
2022-11-24T10:39:23.693Z,33.7
2022-11-24T10:40:49.162Z,34.35
2022-11-24T10:41:23.640Z,34.77
2022-11-24T10:42:23.655Z,34.56
2022-11-24T10:43:23.647Z,34.85
2022-11-24T10:44:23.678Z,34.85
2022-11-24T10:45:23.641Z,33.97
2022-11-24T10:46:23.666Z,33.32
2022-11-24T10:47:23.628Z,33.91
2022-11-24T10:48:23.663Z,33.8
2022-11-24T10:49:23.656Z,34.1
2022-11-24T10:50:23.643Z,34.73
2022-11-24T10:51:23.650Z,33.91
2022-11-24T10:52:23.651Z,33.94
2022-11-24T10:53:23.733Z,34.27
2022-11-24T10:54:23.674Z,34.45
2022-11-24T10:55:23.660Z,34.37
2022-11-24T10:56:23.633Z,34.59
2022-11-24T10:57:23.639Z,34.89
2022-11-24T10:58:23.646Z,33.9
2022-11-24T10:59:23.660Z,33.9
2022-11-24T11:00:23.641Z,33.9
2022-11-24T11:01:23.751Z,34.86
2022-11-24T11:02:23.729Z,34.32
2022-11-24T11:03:23.654Z,34.77
2022-11-24T11:04:23.666Z,34.46
2022-11-24T11:05:23.652Z,34.51
2022-11-24T11:06:23.650Z,33.98
2022-11-24T11:07:23.814Z,34.09
2022-11-24T11:08:23.648Z,33.73
2022-11-24T11:09:23.657Z,33.61
2022-11-24T11:10:23.662Z,33.61
2022-11-24T11:11:23.650Z,33.65
2022-11-24T11:12:44.006Z,33.83
2022-11-24T11:13:23.660Z,33.28
2022-11-24T11:14:23.666Z,33.28
2022-11-24T11:15:23.656Z,33.13
2022-11-24T11:16:23.744Z,32.77
2022-11-24T11:17:23.644Z,32.79
2022-11-24T11:18:23.671Z,32.74
2022-11-24T11:19:47.201Z,32.54
2022-11-24T11:20:23.649Z,32.54
2022-11-24T11:21:23.650Z,32.81
2022-11-24T11:22:23.652Z,32.65
2022-11-24T11:23:23.644Z,32.86
2022-11-24T11:24:23.656Z,32.69
2022-11-24T11:25:23.652Z,32.93
2022-11-24T11:26:23.638Z,32.72
2022-11-24T11:27:23.650Z,32.6
2022-11-24T11:28:23.651Z,32.31
2022-11-24T11:31:24.566Z,33.23
2022-11-24T11:34:28.457Z,33.28
2022-11-24T11:35:23.644Z,33.01
2022-11-24T11:36:23.643Z,32.85
2022-11-24T11:37:23.661Z,32.65
2022-11-24T11:38:23.645Z,32.47
2022-11-24T11:39:23.658Z,32.47
2022-11-24T11:40:23.639Z,32.47
2022-11-24T11:41:23.643Z,32.65
2022-11-24T11:42:53.941Z,32.67
2022-11-24T11:43:23.639Z,32.59
2022-11-24T11:44:23.656Z,32.69
2022-11-24T11:45:23.686Z,32.69
2022-11-24T11:46:23.673Z,32.32
2022-11-24T11:47:23.631Z,32.32
2022-11-24T11:48:23.630Z,32.73
2022-11-24T11:49:23.652Z,32.69
2022-11-24T11:50:23.706Z,32.9
2022-11-24T11:51:24.295Z,32.74
2022-11-24T11:52:23.657Z,32.17
2022-11-24T11:53:23.635Z,32.45
2022-11-24T11:54:23.660Z,32.29
2022-11-24T11:55:23.634Z,32.45
2022-11-24T11:56:23.634Z,32
2022-11-24T11:57:23.655Z,31.75
2022-11-24T11:58:23.628Z,32.35
2022-11-24T11:59:23.673Z,32.11
2022-11-24T12:00:23.665Z,32.33
2022-11-24T12:01:23.630Z,32.6
2022-11-24T12:02:23.760Z,32.69
2022-11-24T12:03:23.894Z,32.94
2022-11-24T12:04:23.660Z,32.73
2022-11-24T12:05:23.633Z,32.17
2022-11-24T12:06:23.644Z,32.43
2022-11-24T12:07:23.688Z,32.29
2022-11-24T12:08:23.771Z,32.38
2022-11-24T12:09:23.643Z,32.76
2022-11-24T12:10:23.651Z,32.76
2022-11-24T12:11:23.646Z,32.58
2022-11-24T12:12:23.650Z,32.37
2022-11-24T12:13:23.675Z,31.7
2022-11-24T12:14:23.658Z,32.17
2022-11-24T12:15:23.650Z,31.86
2022-11-24T12:16:23.732Z,32.22
2022-11-24T12:17:23.643Z,32.14
2022-11-24T12:18:55.130Z,36.14
2022-11-24T12:19:23.655Z,32.03
2022-11-24T12:20:23.632Z,32.03
2022-11-24T12:21:26.599Z,31.96
2022-11-24T12:22:23.643Z,32.29
2022-11-24T12:23:23.652Z,32.4
2022-11-24T12:24:23.687Z,32.28
2022-11-24T12:25:23.641Z,31.68
2022-11-24T12:26:23.648Z,31.53
2022-11-24T12:27:23.644Z,32.05
2022-11-24T12:28:23.646Z,32.27
2022-11-24T12:29:23.655Z,32.76
2022-11-24T12:30:23.640Z,32.76
2022-11-24T12:31:23.715Z,32.89
2022-11-24T12:32:23.632Z,32.51
2022-11-24T12:33:23.645Z,32.27
2022-11-24T12:34:23.656Z,32.55
2022-11-24T12:35:23.644Z,32.47
2022-11-24T12:36:23.684Z,32.87
2022-11-24T12:37:23.641Z,31.9
2022-11-24T12:38:23.629Z,31.95
2022-11-24T12:39:23.762Z,32.01
2022-11-24T12:40:23.644Z,32.01
2022-11-24T12:41:41.055Z,32.34
2022-11-24T12:42:23.648Z,33.22
2022-11-24T12:43:23.651Z,32.83
2022-11-24T12:44:23.662Z,32.51
2022-11-24T12:45:23.647Z,32.22
2022-11-24T12:46:23.692Z,32.8
2022-11-24T12:47:23.655Z,32.19
2022-11-24T12:48:23.626Z,31.94
2022-11-24T12:49:23.662Z,31.76
2022-11-24T12:50:23.645Z,31.76
2022-11-24T12:51:23.790Z,31.59
2022-11-24T12:52:23.636Z,31.83
2022-11-24T12:53:23.648Z,31.74
2022-11-24T12:54:23.659Z,31.98
2022-11-24T12:55:23.660Z,31.98
2022-11-24T12:56:23.641Z,31.81
2022-11-24T12:57:23.641Z,31.63
2022-11-24T12:58:23.687Z,31.63
2022-11-24T12:59:23.665Z,31.91